Latest Weather Observations for Wagga Wagga

IDN60801

Issued at 5:05 am EDT Wednesday 22 October 2014 (issued every 30 minutes, with the page automatically refreshed every 10 minutes)

About weather observations | Map of weather stations | Latest weather observations for NSW | Other Formats
Station Details ID: 072150 Name: WAGGA WAGGA AMO Lat: -35.16 Lon: 147.46 Height: 212.0 m
Data from the previous 72 hours. | See also: Recent months at Wagga Wagga
Date/Time
EDT
Temp
°C
App
Temp
°C
Dew
Point
Rel
Hum
%
Delta-T
°C
Wind Press
QNH
hPa
Press
MSL
hPa
Rain
since 9 am
mm
Dir
 
Spd
km/h
Gust
km/h
Spd
kts
Gust
kts
22/05:00am 12.7 9.3 7.6 71 2.5 E 15 20 8 11 1022.9 1022.8 0.0
22/04:30am 12.9 8.5 7.6 70 2.6 E 20 26 11 14 1022.9 1022.8 0.0
22/04:00am 12.9 8.6 7.8 71 2.5 E 20 26 11 14 1022.9 1022.8 0.0
22/03:30am 13.2 8.9 7.7 69 2.7 E 20 28 11 15 1023.3 1023.2 0.0
22/03:00am 13.7 8.6 7.6 66 3.0 E 24 30 13 16 1023.5 1023.4 0.0
22/02:30am 13.8 8.7 7.8 67 3.0 E 24 30 13 16 1023.9 1023.8 0.0
22/02:00am 14.0 9.3 7.8 66 3.1 E 22 30 12 16 1024.4 1024.2 0.0
22/01:30am 14.4 9.3 7.8 64 3.3 E 24 33 13 18 1024.7 1024.5 0.0
22/01:00am 14.6 10.3 7.8 63 3.4 ENE 20 30 11 16 1025.0 1024.8 0.0
22/12:30am 15.1 9.3 7.9 62 3.6 E 28 39 15 21 1025.2 1025.0 0.0
22/12:00am 15.3 11.1 8.2 62 3.6 E 20 30 11 16 1025.5 1025.3 0.0
 
Date/Time
EDT
Temp
°C
App
Temp
°C
Dew
Point
Rel
Hum
%
Delta-T
°C
Wind Press
QNH
hPa
Press
MSL
hPa
Rain
since 9 am
mm
Dir
 
Spd
km/h
Gust
km/h
Spd
kts
Gust
kts
21/11:30pm 15.4 11.8 8.5 63 3.5 E 17 22 9 12 1025.5 1025.3 0.0
21/11:00pm 16.0 12.1 8.6 61 3.8 E 19 22 10 12 1025.5 1025.3 0.0
21/10:30pm 16.4 11.9 8.6 60 4.0 E 22 28 12 15 1025.7 1025.5 0.0
21/10:00pm 16.9 12.5 8.8 59 4.2 E 22 28 12 15 1025.6 1025.4 0.0
21/09:30pm 17.4 12.6 8.7 56 4.5 E 24 32 13 17 1025.5 1025.3 0.0
21/09:00pm 17.9 13.2 9.1 56 4.6 E 24 30 13 16 1025.3 1025.1 0.0
21/08:30pm 18.4 14.7 9.3 55 4.8 E 19 24 10 13 1025.1 1024.9 0.0
21/08:00pm 19.3 16.3 9.3 52 5.3 E 15 20 8 11 1024.8 1024.6 0.0
21/07:30pm 20.2 16.4 9.1 49 5.9 E 19 26 10 14 1024.6 1024.4 0.0
21/07:00pm 21.4 17.6 9.1 45 6.6 E 19 26 10 14 1024.4 1024.2 0.0
21/06:30pm 22.8 18.9 8.8 40 7.5 ENE 19 26 10 14 1024.3 1024.1 0.0
21/06:00pm 23.3 19.1 8.3 38 8.0 NE 20 30 11 16 1024.2 1024.0 0.0
21/05:30pm 24.4 20.9 8.7 36 8.5 ENE 17 22 9 12 1024.1 1023.9 0.0
21/05:00pm 24.3 20.2 8.0 35 8.7 NE 19 26 10 14 1024.1 1023.9 0.0
21/04:30pm 24.5 20.5 8.3 35 8.7 ENE 19 26 10 14 1024.4 1024.2 0.0
21/04:00pm 24.8 20.7 8.5 35 8.8 E 20 26 11 14 1024.5 1024.3 0.0
21/03:30pm 25.0 21.1 8.8 35 8.8 NE 19 - 10 - 1024.8 1024.6 0.0
21/03:00pm 25.1 21.1 8.4 34 9.0 NE 19 32 10 17 1025.2 1025.0 0.0
21/02:30pm 24.5 19.2 8.3 35 8.7 NE 26 35 14 19 1025.6 1025.4 0.0
21/02:00pm 23.9 19.2 7.9 36 8.5 NE 22 32 12 17 1026.1 1025.9 0.0
21/01:30pm 23.1 18.1 8.0 38 8.0 ENE 24 32 13 17 1026.6 1026.4 0.0
21/01:00pm 23.2 18.3 8.4 38 7.9 ENE 24 35 13 19 1026.9 1026.8 0.0
21/12:30pm 21.8 15.9 7.6 40 7.4 E 28 39 15 21 1027.3 1027.2 0.0
21/12:00pm 21.5 15.8 8.2 42 7.0 E 28 35 15 19 1027.6 1027.5 0.0
21/11:30am 21.0 15.5 7.7 42 6.9 ENE 26 37 14 20 1028.1 1028.0 0.0
21/11:00am 20.3 14.3 7.2 42 6.7 ENE 28 35 15 19 1028.3 1028.2 0.0
21/10:30am 19.3 13.3 7.1 45 6.2 ENE 28 39 15 21 1028.5 1028.4 0.0
21/10:00am 18.4 11.9 6.6 46 5.9 ENE 30 41 16 22 1028.6 1028.5 0.0
21/09:30am 17.5 10.6 6.6 48 5.5 ENE 32 44 17 24 1028.6 1028.5 0.0
21/09:00am 16.6 9.6 6.2 50 5.1 ENE 32 48 17 26 1028.5 1028.4 0.0
21/08:30am 15.7 8.8 6.3 53 4.6 E 32 48 17 26 1028.2 1028.1 0.0
21/08:00am 14.9 7.8 6.2 56 4.2 E 33 41 18 22 1028.2 1028.1 0.0
21/07:30am 13.9 7.4 6.4 60 3.6 E 30 39 16 21 1027.9 1027.8 0.0
21/07:00am 13.1 7.0 6.4 64 3.2 E 28 41 15 22 1027.5 1027.4 0.0
21/06:30am 12.6 6.4 6.3 65 3.0 E 28 41 15 22 1027.1 1027.0 0.0
21/06:00am 12.5 7.1 6.4 66 2.9 E 24 32 13 17 1026.9 1026.8 0.0
21/05:30am 12.5 7.1 6.4 66 2.9 E 24 33 13 18 1026.7 1026.6 0.0
21/05:00am 12.5 6.7 6.4 66 2.9 E 26 37 14 20 1026.6 1026.4 0.0
21/04:30am 12.6 6.1 6.6 67 2.9 E 30 41 16 22 1026.5 1026.3 0.0
21/04:00am 12.7 5.6 6.4 65 3.0 E 33 48 18 26 1026.4 1026.2 0.0
21/03:30am 12.9 6.0 6.4 64 3.1 E 32 43 17 23 1026.3 1026.1 0.0
21/03:00am 13.0 5.6 6.6 65 3.1 E 35 48 19 26 1026.3 1026.1 0.0
21/02:30am 13.2 5.1 6.8 65 3.1 E 39 54 21 29 1026.2 1026.0 0.0
21/02:00am 13.4 6.0 6.8 64 3.2 E 35 52 19 28 1026.4 1026.2 0.0
21/01:32am 13.5 5.7 6.7 63 3.3 E 37 56 20 30 1026.4 1026.2 0.0
21/01:30am 13.5 5.7 6.7 63 3.3 E 37 50 20 27 1026.4 1026.2 0.0
21/01:16am 13.6 5.8 6.8 63 3.3 ENE 37 56 20 30 1026.6 1026.4 0.0
21/01:00am 13.6 6.6 6.8 63 3.3 ENE 33 46 18 25 1026.6 1026.4 0.0
21/12:37am 13.6 6.6 6.8 63 3.3 E 33 54 18 29 1026.7 1026.6 0.0
21/12:30am 13.9 6.8 6.4 60 3.6 E 33 46 18 25 1026.6 1026.4 0.0
21/12:00am 14.0 7.1 6.3 60 3.7 E 32 43 17 23 1026.6 1026.4 0.0
 
Date/Time
EDT
Temp
°C
App
Temp
°C
Dew
Point
Rel
Hum
%
Delta-T
°C
Wind Press
QNH
hPa
Press
MSL
hPa
Rain
since 9 am
mm
Dir
 
Spd
km/h
Gust
km/h
Spd
kts
Gust
kts
20/11:30pm 14.1 7.0 6.5 60 3.7 ENE 33 44 18 24 1026.5 1026.3 0.0
20/11:15pm 14.3 7.4 6.5 59 3.8 ENE 32 39 17 21 1026.4 1026.2 0.0
20/11:00pm 14.5 8.0 6.5 58 3.9 ENE 30 48 16 26 1026.4 1026.2 0.0
20/10:59pm 14.4 8.0 6.8 60 3.7 ENE 30 48 16 26 1026.5 1026.3 0.0
20/10:30pm 14.9 7.9 6.7 58 4.0 E 33 43 18 23 1026.4 1026.2 0.0
20/10:00pm 15.2 8.3 7.1 58 4.0 E 33 48 18 26 1026.2 1026.0 0.0
20/09:30pm 15.8 8.5 7.2 56 4.3 E 35 54 19 29 1025.9 1025.7 0.0
20/09:25pm 15.8 8.5 7.4 57 4.2 E 35 54 19 29 1025.8 1025.6 0.0
20/09:00pm 16.5 9.6 7.3 54 4.6 E 33 48 18 26 1025.6 1025.4 0.0
20/08:30pm 17.3 11.4 7.6 53 4.9 E 28 41 15 22 1025.1 1024.9 0.0
20/08:00pm 18.1 12.4 8.2 52 5.1 E 28 39 15 21 1024.5 1024.3 0.0
20/07:30pm 19.5 14.2 8.4 48 5.8 E 26 37 14 20 1023.8 1023.7 0.0
20/07:00pm 21.1 15.2 9.1 46 6.4 E 30 39 16 21 1023.1 1023.0 0.0
20/06:30pm 23.0 17.2 9.6 42 7.3 E 30 35 16 19 1022.6 1022.4 0.0
20/06:00pm 24.5 19.0 9.3 38 8.3 ENE 28 41 15 22 1022.1 1021.9 0.0
20/05:30pm 25.7 19.6 9.9 37 8.8 ENE 32 41 17 22 1022.0 1021.8 0.0
20/05:00pm 26.4 20.4 10.2 36 9.1 ENE 32 43 17 23 1021.7 1021.5 0.0
20/04:30pm 28.4 23.1 9.7 31 10.5 ENE 28 41 15 22 1021.2 1021.0 0.0
20/04:00pm 29.5 24.9 9.7 29 11.2 ENE 24 33 13 18 1021.3 1021.1 0.0
20/03:30pm 30.9 27.8 3.4 17 14.1 S 9 15 5 8 1021.5 1021.3 0.0
20/03:00pm 30.5 26.6 0.9 15 14.5 SSW 11 19 6 10 1021.9 1021.7 0.0
20/02:30pm 30.5 27.5 3.9 18 13.8 WSW 9 17 5 9 1022.3 1022.1 0.0
20/02:00pm 30.1 27.4 5.8 21 12.9 ESE 9 17 5 9 1022.7 1022.6 0.0
20/01:30pm 29.1 26.4 5.5 22 12.4 E 9 15 5 8 1023.2 1023.1 0.0
20/01:00pm 28.8 26.1 7.3 25 11.6 ENE 11 19 6 10 1023.4 1023.3 0.0
20/12:30pm 27.7 24.8 8.0 29 10.7 ENE 13 20 7 11 1023.7 1023.6 0.0
20/12:00pm 27.1 24.4 8.9 31 10.0 E 13 22 7 12 1024.3 1024.1 0.0
20/11:30am 26.0 23.6 8.5 33 9.5 E 11 17 6 9 1024.6 1024.4 0.0
20/11:00am 25.2 22.3 8.3 34 9.1 SE 13 19 7 10 1024.7 1024.5 0.0
20/10:30am 23.3 20.9 8.5 38 8.0 E 11 15 6 8 1024.8 1024.6 0.0
20/10:00am 21.8 19.0 8.6 42 7.0 E 13 17 7 9 1024.7 1024.5 0.0
20/09:30am 20.3 17.3 9.2 49 5.9 E 15 19 8 10 1024.6 1024.4 0.0
20/09:00am 18.6 15.6 9.3 54 4.9 E 15 17 8 9 1024.5 1024.3 0.0
20/08:30am 17.0 14.5 9.8 62 3.8 E 13 17 7 9 1024.2 1024.0 0.0
20/08:00am 15.8 13.4 8.6 62 3.7 E 11 15 6 8 1024.1 1023.9 0.0
20/07:30am 14.6 12.3 8.9 68 2.9 ESE 11 13 6 7 1023.6 1023.5 0.0
20/07:00am 11.5 9.4 8.3 81 1.6 SE 9 11 5 6 1023.1 1023.0 0.0
20/06:30am 11.6 9.4 7.9 78 1.8 E 9 13 5 7 1022.7 1022.6 0.0
20/06:00am 11.3 9.1 8.0 80 1.6 ENE 9 9 5 5 1022.5 1022.3 0.0
20/05:30am 10.0 7.8 7.7 86 1.1 ESE 9 11 5 6 1022.1 1021.9 0.0
20/05:00am 10.4 8.7 8.2 86 1.1 E 7 11 4 6 1021.5 1021.3 0.0
20/04:30am 12.4 10.7 8.4 76 2.0 ENE 7 9 4 5 1021.4 1021.2 0.0
20/04:00am 13.9 12.2 8.3 69 2.8 ESE 7 11 4 6 1021.5 1021.3 0.0
20/03:30am 15.3 12.5 8.4 63 3.5 E 13 15 7 8 1021.5 1021.3 0.0
20/03:00am 13.3 10.9 8.5 72 2.4 ESE 11 13 6 7 1021.6 1021.4 0.0
20/02:30am 12.1 10.5 8.7 80 1.7 E 7 7 4 4 1021.8 1021.6 0.0
20/02:03am 12.1 11.4 8.7 80 1.7 E 2 6 1 3 1021.9 1021.7 0.0
20/02:00am 11.7 11.5 8.9 83 1.4 CALM 0 6 0 3 1021.9 1021.7 0.0
20/01:45am 11.4 11.1 8.6 83 1.4 CALM 0 0 0 0 1022.1 1021.9 0.0
20/01:30am 11.0 10.6 8.4 84 1.3 CALM 0 0 0 0 1022.4 1022.2 0.0
20/01:00am 13.2 11.8 8.9 75 2.2 E 6 7 3 4 1022.6 1022.4 0.0
20/12:30am 14.9 13.1 9.5 70 2.8 ESE 9 11 5 6 1022.6 1022.4 0.0
20/12:00am 16.6 14.6 8.7 59 4.1 E 9 11 5 6 1022.6 1022.4 0.0
 
Date/Time
EDT
Temp
°C
App
Temp
°C
Dew
Point
Rel
Hum
%
Delta-T
°C
Wind Press
QNH
hPa
Press
MSL
hPa
Rain
since 9 am
mm
Dir
 
Spd
km/h
Gust
km/h
Spd
kts
Gust
kts
19/11:30pm 14.6 12.7 9.2 70 2.8 ESE 9 11 5 6 1022.8 1022.7 0.0
19/11:00pm 16.2 14.4 9.3 63 3.6 ESE 9 11 5 6 1022.7 1022.6 0.0
19/10:30pm 16.9 14.9 8.8 59 4.2 ESE 9 13 5 7 1022.9 1022.8 0.0
19/10:00pm 20.0 17.0 7.6 44 6.4 E 13 13 7 7 1022.8 1022.7 0.0
19/09:30pm 19.4 16.4 7.8 47 6.0 E 13 15 7 8 1022.8 1022.7 0.0
19/09:00pm 18.4 16.5 8.9 54 5.0 E 9 11 5 6 1022.7 1022.6 0.0
19/08:30pm 19.8 17.4 8.8 49 5.8 E 11 13 6 7 1022.4 1022.2 0.0
19/08:00pm 22.3 19.6 7.3 38 7.8 E 11 13 6 7 1022.0 1021.8 0.0
19/07:30pm 23.7 20.6 7.1 34 8.7 E 13 17 7 9 1021.8 1021.6 0.0
19/07:00pm 24.7 22.0 7.3 33 9.2 E 11 13 6 7 1021.7 1021.5 0.0
19/06:30pm 26.0 22.6 5.7 27 10.5 ESE 13 17 7 9 1021.3 1021.1 0.0
19/06:00pm 27.6 24.9 2.5 20 12.4 ENE 6 11 3 6 1021.3 1021.1 0.0
19/05:30pm 28.2 25.3 4.4 22 12.2 ENE 9 13 5 7 1021.2 1021.0 0.0
19/05:00pm 28.6 25.5 3.5 20 12.7 NW 9 15 5 8 1021.3 1021.1 0.0
19/04:30pm 28.5 24.8 -0.2 15 13.6 NNE 9 15 5 8 1021.3 1021.1 0.0
19/04:00pm 28.9 25.5 1.6 17 13.4 WSW 9 13 5 7 1021.8 1021.6 0.0
19/03:30pm 28.2 24.7 1.2 17 13.1 SSE 9 13 5 7 1022.1 1021.9 0.0
19/03:00pm 27.2 24.5 2.7 20 12.1 NNE 6 15 3 8 1022.6 1022.4 0.0
19/02:30pm 27.7 25.2 3.7 21 12.2 NNW 6 11 3 6 1023.1 1023.0 0.0
19/02:00pm 27.2 24.3 4.8 24 11.5 NE 9 15 5 8 1023.6 1023.5 0.0
19/01:30pm 26.8 24.1 5.6 25 11.0 WSW 9 15 5 8 1024.2 1024.0 0.0
19/01:00pm 25.4 21.7 4.6 26 10.5 N 13 19 7 10 1024.3 1024.1 0.0
19/12:30pm 24.8 21.1 4.5 27 10.2 N 13 20 7 11 1024.7 1024.5 0.0
19/12:00pm 24.4 21.9 8.1 35 8.7 N 11 15 6 8 1025.4 1025.2 0.0
19/11:30am 23.2 21.4 9.4 41 7.5 NNE 9 15 5 8 1025.9 1025.7 0.0
19/11:00am 21.7 19.8 9.0 44 6.8 NNE 9 13 5 7 1026.2 1026.0 0.0
19/10:30am 20.3 17.8 8.3 46 6.3 E 11 17 6 9 1026.4 1026.2 0.0
19/10:00am 19.8 17.0 8.5 48 5.9 E 13 17 7 9 1026.6 1026.4 0.0
19/09:30am 17.7 14.4 7.9 52 5.0 E 15 19 8 10 1026.6 1026.4 0.0
19/09:00am 16.3 13.0 8.0 58 4.2 E 15 17 8 9 1026.6 1026.4 0.0
19/08:30am 14.3 11.3 7.7 64 3.3 E 13 17 7 9 1026.7 1026.6 0.0
19/08:00am 13.0 9.6 7.5 69 2.7 E 15 17 8 9 1026.8 1026.7 0.0
19/07:30am 11.4 8.1 6.6 72 2.3 ENE 13 13 7 7 1026.6 1026.4 0.0
19/07:00am 10.4 7.5 6.6 77 1.8 ENE 11 13 6 7 1026.2 1026.0 0.0
19/06:30am 9.7 6.4 6.3 79 1.6 E 13 13 7 7 1025.7 1025.5 0.0
19/06:00am 10.1 7.1 6.0 76 1.9 E 11 13 6 7 1025.3 1025.1 0.0
19/05:30am 10.1 7.1 6.0 76 1.9 E 11 13 6 7 1025.0 1024.8 0.0

Other Formats:

Comma delimited format used in spreadsheet applications
http://www.bom.gov.au/fwo/IDN60801/IDN60801.94910.axf

JavaScript Object Notation format (JSON) in row-major order
http://www.bom.gov.au/fwo/IDN60801/IDN60801.94910.json